sensor_id;sensor_type;location;lat;lon;timestamp;P1;durP1;ratioP1;P2;durP2;ratioP2
25079;SDS011;13071;48.868;9.996;2022-12-18T00:02:14;58.20;;;20.17;;
25079;SDS011;13071;48.868;9.996;2022-12-18T00:04:40;54.50;;;20.70;;
25079;SDS011;13071;48.868;9.996;2022-12-18T00:07:08;53.43;;;19.63;;
25079;SDS011;13071;48.868;9.996;2022-12-18T00:09:35;55.37;;;20.13;;
25079;SDS011;13071;48.868;9.996;2022-12-18T00:12:02;58.27;;;20.30;;
25079;SDS011;13071;48.868;9.996;2022-12-18T00:14:29;57.80;;;20.93;;
25079;SDS011;13071;48.868;9.996;2022-12-18T00:16:56;56.30;;;20.13;;
25079;SDS011;13071;48.868;9.996;2022-12-18T00:19:25;51.67;;;19.50;;
25079;SDS011;13071;48.868;9.996;2022-12-18T00:21:52;49.00;;;19.33;;
25079;SDS011;13071;48.868;9.996;2022-12-18T00:24:20;53.07;;;19.73;;
25079;SDS011;13071;48.868;9.996;2022-12-18T00:26:47;55.83;;;19.63;;
25079;SDS011;13071;48.868;9.996;2022-12-18T00:29:13;46.50;;;17.97;;
25079;SDS011;13071;48.868;9.996;2022-12-18T00:31:40;48.37;;;19.13;;
25079;SDS011;13071;48.868;9.996;2022-12-18T00:34:08;57.07;;;19.83;;
25079;SDS011;13071;48.868;9.996;2022-12-18T00:36:36;56.43;;;19.70;;
25079;SDS011;13071;48.868;9.996;2022-12-18T00:39:04;57.00;;;19.97;;
25079;SDS011;13071;48.868;9.996;2022-12-18T00:41:32;55.90;;;20.60;;
25079;SDS011;13071;48.868;9.996;2022-12-18T00:44:17;52.27;;;18.03;;
25079;SDS011;13071;48.868;9.996;2022-12-18T00:46:44;49.60;;;18.83;;
25079;SDS011;13071;48.868;9.996;2022-12-18T00:49:12;50.83;;;19.20;;
25079;SDS011;13071;48.868;9.996;2022-12-18T00:51:39;51.60;;;19.77;;
25079;SDS011;13071;48.868;9.996;2022-12-18T00:54:06;58.47;;;19.87;;
25079;SDS011;13071;48.868;9.996;2022-12-18T00:56:34;51.43;;;19.07;;
25079;SDS011;13071;48.868;9.996;2022-12-18T00:59:02;52.77;;;19.60;;
25079;SDS011;13071;48.868;9.996;2022-12-18T01:01:28;59.10;;;20.03;;
25079;SDS011;13071;48.868;9.996;2022-12-18T01:03:55;58.00;;;19.43;;
25079;SDS011;13071;48.868;9.996;2022-12-18T01:06:23;50.60;;;18.63;;
25079;SDS011;13071;48.868;9.996;2022-12-18T01:08:49;50.90;;;19.13;;
25079;SDS011;13071;48.868;9.996;2022-12-18T01:11:16;48.43;;;18.60;;
25079;SDS011;13071;48.868;9.996;2022-12-18T01:13:46;48.40;;;18.47;;
25079;SDS011;13071;48.868;9.996;2022-12-18T01:16:13;43.63;;;17.80;;
25079;SDS011;13071;48.868;9.996;2022-12-18T01:18:41;49.83;;;17.97;;
25079;SDS011;13071;48.868;9.996;2022-12-18T01:21:08;47.93;;;17.30;;
25079;SDS011;13071;48.868;9.996;2022-12-18T01:23:36;47.60;;;17.87;;
25079;SDS011;13071;48.868;9.996;2022-12-18T01:26:06;44.93;;;16.57;;
25079;SDS011;13071;48.868;9.996;2022-12-18T01:28:34;50.20;;;18.07;;
25079;SDS011;13071;48.868;9.996;2022-12-18T01:33:48;44.53;;;16.57;;
25079;SDS011;13071;48.868;9.996;2022-12-18T01:36:16;50.10;;;18.67;;
25079;SDS011;13071;48.868;9.996;2022-12-18T01:38:44;50.00;;;19.23;;
25079;SDS011;13071;48.868;9.996;2022-12-18T01:41:11;55.73;;;20.17;;
25079;SDS011;13071;48.868;9.996;2022-12-18T01:43:47;60.37;;;20.97;;
25079;SDS011;13071;48.868;9.996;2022-12-18T01:46:15;53.20;;;19.80;;
25079;SDS011;13071;48.868;9.996;2022-12-18T01:48:44;57.50;;;20.83;;
25079;SDS011;13071;48.868;9.996;2022-12-18T01:51:14;58.07;;;21.07;;
25079;SDS011;13071;48.868;9.996;2022-12-18T01:53:42;59.53;;;20.43;;
25079;SDS011;13071;48.868;9.996;2022-12-18T01:56:12;54.87;;;19.67;;
25079;SDS011;13071;48.868;9.996;2022-12-18T01:58:41;56.17;;;18.93;;
25079;SDS011;13071;48.868;9.996;2022-12-18T02:01:15;55.00;;;17.90;;
25079;SDS011;13071;48.868;9.996;2022-12-18T02:03:43;56.30;;;18.37;;
25079;SDS011;13071;48.868;9.996;2022-12-18T02:06:12;58.13;;;19.33;;
25079;SDS011;13071;48.868;9.996;2022-12-18T02:08:44;50.07;;;18.47;;
25079;SDS011;13071;48.868;9.996;2022-12-18T02:11:17;61.33;;;20.37;;
25079;SDS011;13071;48.868;9.996;2022-12-18T02:13:51;58.07;;;20.60;;
25079;SDS011;13071;48.868;9.996;2022-12-18T02:16:25;59.07;;;19.77;;
25079;SDS011;13071;48.868;9.996;2022-12-18T02:19:02;64.03;;;20.43;;
25079;SDS011;13071;48.868;9.996;2022-12-18T02:21:34;58.60;;;20.17;;
25079;SDS011;13071;48.868;9.996;2022-12-18T02:24:16;52.63;;;18.83;;
25079;SDS011;13071;48.868;9.996;2022-12-18T02:26:54;58.17;;;18.67;;
25079;SDS011;13071;48.868;9.996;2022-12-18T02:29:23;55.20;;;19.80;;
25079;SDS011;13071;48.868;9.996;2022-12-18T02:31:53;61.43;;;19.50;;
25079;SDS011;13071;48.868;9.996;2022-12-18T02:34:23;59.50;;;19.17;;
25079;SDS011;13071;48.868;9.996;2022-12-18T02:36:54;64.57;;;20.23;;
25079;SDS011;13071;48.868;9.996;2022-12-18T02:39:23;60.17;;;19.57;;
25079;SDS011;13071;48.868;9.996;2022-12-18T02:41:54;57.93;;;19.83;;
25079;SDS011;13071;48.868;9.996;2022-12-18T02:44:20;56.93;;;18.40;;
25079;SDS011;13071;48.868;9.996;2022-12-18T02:46:48;59.37;;;19.83;;
25079;SDS011;13071;48.868;9.996;2022-12-18T02:49:23;60.83;;;18.90;;
25079;SDS011;13071;48.868;9.996;2022-12-18T02:51:59;61.57;;;18.43;;
25079;SDS011;13071;48.868;9.996;2022-12-18T02:54:35;53.70;;;18.30;;
25079;SDS011;13071;48.868;9.996;2022-12-18T02:57:14;55.23;;;18.47;;
25079;SDS011;13071;48.868;9.996;2022-12-18T02:59:48;56.90;;;18.80;;
25079;SDS011;13071;48.868;9.996;2022-12-18T03:02:23;54.90;;;18.50;;
25079;SDS011;13071;48.868;9.996;2022-12-18T03:04:55;52.57;;;17.03;;
25079;SDS011;13071;48.868;9.996;2022-12-18T03:07:33;50.63;;;17.27;;
25079;SDS011;13071;48.868;9.996;2022-12-18T03:10:03;49.10;;;16.07;;
25079;SDS011;13071;48.868;9.996;2022-12-18T03:12:34;50.20;;;17.17;;
25079;SDS011;13071;48.868;9.996;2022-12-18T03:15:04;46.93;;;16.57;;
25079;SDS011;13071;48.868;9.996;2022-12-18T03:17:36;49.17;;;16.60;;
25079;SDS011;13071;48.868;9.996;2022-12-18T03:20:07;40.73;;;14.90;;
25079;SDS011;13071;48.868;9.996;2022-12-18T03:22:39;46.10;;;15.87;;
25079;SDS011;13071;48.868;9.996;2022-12-18T03:25:11;45.97;;;15.30;;
25079;SDS011;13071;48.868;9.996;2022-12-18T03:27:42;41.90;;;14.73;;
25079;SDS011;13071;48.868;9.996;2022-12-18T03:30:14;43.63;;;15.33;;
25079;SDS011;13071;48.868;9.996;2022-12-18T03:32:42;53.80;;;16.23;;
25079;SDS011;13071;48.868;9.996;2022-12-18T03:35:14;50.20;;;15.30;;
25079;SDS011;13071;48.868;9.996;2022-12-18T03:37:44;46.63;;;14.93;;
25079;SDS011;13071;48.868;9.996;2022-12-18T03:40:11;47.17;;;15.10;;
25079;SDS011;13071;48.868;9.996;2022-12-18T03:42:39;49.60;;;14.33;;
25079;SDS011;13071;48.868;9.996;2022-12-18T03:45:13;44.43;;;14.33;;
25079;SDS011;13071;48.868;9.996;2022-12-18T03:47:48;52.17;;;15.47;;
25079;SDS011;13071;48.868;9.996;2022-12-18T03:50:26;40.53;;;13.97;;
25079;SDS011;13071;48.868;9.996;2022-12-18T03:53:04;44.23;;;14.07;;
25079;SDS011;13071;48.868;9.996;2022-12-18T03:55:36;39.50;;;14.53;;
25079;SDS011;13071;48.868;9.996;2022-12-18T03:58:06;45.17;;;15.20;;
25079;SDS011;13071;48.868;9.996;2022-12-18T04:00:35;43.80;;;14.33;;
25079;SDS011;13071;48.868;9.996;2022-12-18T04:03:02;43.10;;;14.53;;
25079;SDS011;13071;48.868;9.996;2022-12-18T04:05:30;44.27;;;15.10;;
25079;SDS011;13071;48.868;9.996;2022-12-18T04:08:00;44.13;;;15.10;;
25079;SDS011;13071;48.868;9.996;2022-12-18T04:10:28;41.73;;;14.27;;
25079;SDS011;13071;48.868;9.996;2022-12-18T04:12:55;48.03;;;15.07;;
25079;SDS011;13071;48.868;9.996;2022-12-18T04:15:23;44.23;;;14.07;;
25079;SDS011;13071;48.868;9.996;2022-12-18T04:17:50;46.00;;;14.93;;
25079;SDS011;13071;48.868;9.996;2022-12-18T04:20:17;42.87;;;13.73;;
25079;SDS011;13071;48.868;9.996;2022-12-18T04:22:44;51.30;;;14.97;;
25079;SDS011;13071;48.868;9.996;2022-12-18T04:25:12;47.13;;;14.07;;
25079;SDS011;13071;48.868;9.996;2022-12-18T04:27:39;45.23;;;13.03;;
25079;SDS011;13071;48.868;9.996;2022-12-18T04:30:06;41.33;;;13.80;;
25079;SDS011;13071;48.868;9.996;2022-12-18T04:32:35;41.27;;;12.77;;
25079;SDS011;13071;48.868;9.996;2022-12-18T04:35:01;41.57;;;13.90;;
25079;SDS011;13071;48.868;9.996;2022-12-18T04:37:29;40.70;;;13.57;;
25079;SDS011;13071;48.868;9.996;2022-12-18T04:39:55;35.80;;;13.23;;
25079;SDS011;13071;48.868;9.996;2022-12-18T04:42:22;46.13;;;14.50;;
25079;SDS011;13071;48.868;9.996;2022-12-18T04:44:48;43.87;;;13.67;;
25079;SDS011;13071;48.868;9.996;2022-12-18T04:47:15;41.70;;;14.37;;
25079;SDS011;13071;48.868;9.996;2022-12-18T04:49:43;42.33;;;13.37;;
25079;SDS011;13071;48.868;9.996;2022-12-18T04:52:09;41.60;;;13.53;;
25079;SDS011;13071;48.868;9.996;2022-12-18T04:54:36;41.40;;;14.17;;
25079;SDS011;13071;48.868;9.996;2022-12-18T04:57:03;40.07;;;13.63;;
25079;SDS011;13071;48.868;9.996;2022-12-18T04:59:29;39.47;;;12.53;;
25079;SDS011;13071;48.868;9.996;2022-12-18T05:01:56;41.17;;;14.33;;
25079;SDS011;13071;48.868;9.996;2022-12-18T05:04:22;40.90;;;13.37;;
25079;SDS011;13071;48.868;9.996;2022-12-18T05:06:50;47.93;;;14.43;;
25079;SDS011;13071;48.868;9.996;2022-12-18T05:09:17;49.83;;;15.10;;
25079;SDS011;13071;48.868;9.996;2022-12-18T05:11:43;48.93;;;14.60;;
25079;SDS011;13071;48.868;9.996;2022-12-18T05:14:11;48.27;;;15.00;;
25079;SDS011;13071;48.868;9.996;2022-12-18T05:16:38;45.40;;;14.13;;
25079;SDS011;13071;48.868;9.996;2022-12-18T05:19:04;44.43;;;13.87;;
25079;SDS011;13071;48.868;9.996;2022-12-18T05:21:31;51.47;;;14.90;;
25079;SDS011;13071;48.868;9.996;2022-12-18T05:23:59;54.87;;;15.73;;
25079;SDS011;13071;48.868;9.996;2022-12-18T05:26:25;49.40;;;14.73;;
25079;SDS011;13071;48.868;9.996;2022-12-18T05:28:52;46.43;;;14.30;;
25079;SDS011;13071;48.868;9.996;2022-12-18T05:31:19;47.67;;;14.60;;
25079;SDS011;13071;48.868;9.996;2022-12-18T05:33:45;44.57;;;15.30;;
25079;SDS011;13071;48.868;9.996;2022-12-18T05:36:12;43.07;;;13.67;;
25079;SDS011;13071;48.868;9.996;2022-12-18T05:38:38;39.07;;;14.93;;
25079;SDS011;13071;48.868;9.996;2022-12-18T05:41:07;41.23;;;14.13;;
25079;SDS011;13071;48.868;9.996;2022-12-18T05:43:34;47.10;;;14.17;;
25079;SDS011;13071;48.868;9.996;2022-12-18T05:46:05;49.70;;;14.53;;
25079;SDS011;13071;48.868;9.996;2022-12-18T05:48:33;37.57;;;12.87;;
25079;SDS011;13071;48.868;9.996;2022-12-18T05:51:03;38.90;;;13.33;;
25079;SDS011;13071;48.868;9.996;2022-12-18T05:53:31;44.67;;;13.17;;
25079;SDS011;13071;48.868;9.996;2022-12-18T05:55:59;41.13;;;13.17;;
25079;SDS011;13071;48.868;9.996;2022-12-18T05:58:28;46.23;;;13.73;;
25079;SDS011;13071;48.868;9.996;2022-12-18T06:00:55;44.70;;;13.97;;
25079;SDS011;13071;48.868;9.996;2022-12-18T06:03:22;40.43;;;13.13;;
25079;SDS011;13071;48.868;9.996;2022-12-18T06:05:49;42.07;;;13.20;;
25079;SDS011;13071;48.868;9.996;2022-12-18T06:08:16;49.87;;;14.63;;
25079;SDS011;13071;48.868;9.996;2022-12-18T06:10:48;46.27;;;14.07;;
25079;SDS011;13071;48.868;9.996;2022-12-18T06:13:17;50.17;;;15.17;;
25079;SDS011;13071;48.868;9.996;2022-12-18T06:15:45;42.93;;;14.20;;
25079;SDS011;13071;48.868;9.996;2022-12-18T06:18:11;51.07;;;14.83;;
25079;SDS011;13071;48.868;9.996;2022-12-18T06:20:38;46.20;;;14.03;;
25079;SDS011;13071;48.868;9.996;2022-12-18T06:23:06;45.40;;;13.73;;
25079;SDS011;13071;48.868;9.996;2022-12-18T06:25:33;42.83;;;13.73;;
25079;SDS011;13071;48.868;9.996;2022-12-18T06:27:59;43.83;;;14.27;;
25079;SDS011;13071;48.868;9.996;2022-12-18T06:30:26;41.57;;;13.33;;
25079;SDS011;13071;48.868;9.996;2022-12-18T06:32:54;43.27;;;14.07;;
25079;SDS011;13071;48.868;9.996;2022-12-18T06:35:20;37.10;;;12.77;;
25079;SDS011;13071;48.868;9.996;2022-12-18T06:37:47;41.93;;;12.70;;
25079;SDS011;13071;48.868;9.996;2022-12-18T06:40:13;40.87;;;13.77;;
25079;SDS011;13071;48.868;9.996;2022-12-18T06:42:40;40.50;;;13.43;;
25079;SDS011;13071;48.868;9.996;2022-12-18T06:45:07;43.93;;;13.47;;
25079;SDS011;13071;48.868;9.996;2022-12-18T06:47:34;42.10;;;13.20;;
25079;SDS011;13071;48.868;9.996;2022-12-18T06:50:02;41.70;;;12.70;;
25079;SDS011;13071;48.868;9.996;2022-12-18T06:52:31;45.23;;;12.87;;
25079;SDS011;13071;48.868;9.996;2022-12-18T06:54:57;48.97;;;13.87;;
25079;SDS011;13071;48.868;9.996;2022-12-18T06:57:24;37.17;;;12.50;;
25079;SDS011;13071;48.868;9.996;2022-12-18T06:59:51;45.33;;;13.43;;
25079;SDS011;13071;48.868;9.996;2022-12-18T07:02:18;44.63;;;13.60;;
25079;SDS011;13071;48.868;9.996;2022-12-18T07:04:44;44.60;;;12.80;;
25079;SDS011;13071;48.868;9.996;2022-12-18T07:07:12;43.23;;;13.23;;
25079;SDS011;13071;48.868;9.996;2022-12-18T07:09:39;44.80;;;13.20;;
25079;SDS011;13071;48.868;9.996;2022-12-18T07:12:05;50.90;;;16.67;;
25079;SDS011;13071;48.868;9.996;2022-12-18T07:14:33;45.50;;;14.20;;
25079;SDS011;13071;48.868;9.996;2022-12-18T07:16:59;48.27;;;14.63;;
25079;SDS011;13071;48.868;9.996;2022-12-18T07:19:26;50.60;;;14.90;;
25079;SDS011;13071;48.868;9.996;2022-12-18T07:21:52;42.00;;;14.07;;
25079;SDS011;13071;48.868;9.996;2022-12-18T07:24:20;47.20;;;13.67;;
25079;SDS011;13071;48.868;9.996;2022-12-18T07:26:47;43.50;;;13.30;;
25079;SDS011;13071;48.868;9.996;2022-12-18T07:29:14;138.53;;;37.30;;
25079;SDS011;13071;48.868;9.996;2022-12-18T07:31:40;106.20;;;29.70;;
25079;SDS011;13071;48.868;9.996;2022-12-18T07:34:09;131.77;;;37.97;;
25079;SDS011;13071;48.868;9.996;2022-12-18T07:36:37;53.50;;;16.70;;
25079;SDS011;13071;48.868;9.996;2022-12-18T07:39:04;48.27;;;15.23;;
25079;SDS011;13071;48.868;9.996;2022-12-18T07:41:32;57.53;;;19.07;;
25079;SDS011;13071;48.868;9.996;2022-12-18T07:43:59;53.17;;;15.60;;
25079;SDS011;13071;48.868;9.996;2022-12-18T07:46:26;53.10;;;16.20;;
25079;SDS011;13071;48.868;9.996;2022-12-18T07:48:52;57.33;;;15.90;;
25079;SDS011;13071;48.868;9.996;2022-12-18T07:51:19;61.03;;;16.57;;
25079;SDS011;13071;48.868;9.996;2022-12-18T07:53:46;53.63;;;15.40;;
25079;SDS011;13071;48.868;9.996;2022-12-18T07:56:13;53.13;;;15.70;;
25079;SDS011;13071;48.868;9.996;2022-12-18T07:58:41;50.37;;;17.80;;
25079;SDS011;13071;48.868;9.996;2022-12-18T08:01:09;55.83;;;16.57;;
25079;SDS011;13071;48.868;9.996;2022-12-18T08:03:38;51.47;;;15.50;;
25079;SDS011;13071;48.868;9.996;2022-12-18T08:06:06;54.90;;;16.63;;
25079;SDS011;13071;48.868;9.996;2022-12-18T08:08:34;52.37;;;15.23;;
25079;SDS011;13071;48.868;9.996;2022-12-18T08:11:02;55.03;;;17.53;;
25079;SDS011;13071;48.868;9.996;2022-12-18T08:13:28;53.87;;;17.63;;
25079;SDS011;13071;48.868;9.996;2022-12-18T08:15:57;59.33;;;18.17;;
25079;SDS011;13071;48.868;9.996;2022-12-18T08:18:24;60.13;;;17.67;;
25079;SDS011;13071;48.868;9.996;2022-12-18T08:20:50;58.27;;;18.23;;
25079;SDS011;13071;48.868;9.996;2022-12-18T08:23:17;65.20;;;22.07;;
25079;SDS011;13071;48.868;9.996;2022-12-18T08:25:44;53.77;;;18.23;;
25079;SDS011;13071;48.868;9.996;2022-12-18T08:28:10;55.63;;;15.83;;
25079;SDS011;13071;48.868;9.996;2022-12-18T08:30:37;53.53;;;16.80;;
25079;SDS011;13071;48.868;9.996;2022-12-18T08:33:05;50.47;;;16.50;;
25079;SDS011;13071;48.868;9.996;2022-12-18T08:35:34;52.57;;;16.00;;
25079;SDS011;13071;48.868;9.996;2022-12-18T08:38:01;54.77;;;17.83;;
25079;SDS011;13071;48.868;9.996;2022-12-18T08:40:28;54.57;;;16.37;;
25079;SDS011;13071;48.868;9.996;2022-12-18T08:42:54;55.63;;;16.63;;
25079;SDS011;13071;48.868;9.996;2022-12-18T08:45:35;53.37;;;15.90;;
25079;SDS011;13071;48.868;9.996;2022-12-18T08:48:02;59.20;;;16.77;;
25079;SDS011;13071;48.868;9.996;2022-12-18T08:50:30;57.80;;;17.10;;
25079;SDS011;13071;48.868;9.996;2022-12-18T08:52:56;60.07;;;18.13;;
25079;SDS011;13071;48.868;9.996;2022-12-18T08:55:23;51.73;;;15.93;;
25079;SDS011;13071;48.868;9.996;2022-12-18T08:57:50;59.10;;;16.80;;
25079;SDS011;13071;48.868;9.996;2022-12-18T09:00:16;56.77;;;17.53;;
25079;SDS011;13071;48.868;9.996;2022-12-18T09:02:43;52.03;;;16.10;;
25079;SDS011;13071;48.868;9.996;2022-12-18T09:05:10;65.03;;;18.27;;
25079;SDS011;13071;48.868;9.996;2022-12-18T09:07:38;49.87;;;15.30;;
25079;SDS011;13071;48.868;9.996;2022-12-18T09:10:05;48.10;;;15.23;;
25079;SDS011;13071;48.868;9.996;2022-12-18T09:12:32;51.40;;;17.33;;
25079;SDS011;13071;48.868;9.996;2022-12-18T09:14:59;55.93;;;17.50;;
25079;SDS011;13071;48.868;9.996;2022-12-18T09:17:25;51.70;;;16.63;;
25079;SDS011;13071;48.868;9.996;2022-12-18T09:19:52;57.93;;;16.33;;
25079;SDS011;13071;48.868;9.996;2022-12-18T09:22:18;52.13;;;16.87;;
25079;SDS011;13071;48.868;9.996;2022-12-18T09:24:46;47.60;;;16.27;;
25079;SDS011;13071;48.868;9.996;2022-12-18T09:27:14;50.67;;;16.20;;
25079;SDS011;13071;48.868;9.996;2022-12-18T09:29:41;44.90;;;14.93;;
25079;SDS011;13071;48.868;9.996;2022-12-18T09:32:08;44.80;;;16.20;;
25079;SDS011;13071;48.868;9.996;2022-12-18T09:34:34;54.07;;;16.90;;
25079;SDS011;13071;48.868;9.996;2022-12-18T09:37:01;51.20;;;16.47;;
25079;SDS011;13071;48.868;9.996;2022-12-18T09:39:27;47.73;;;15.90;;
25079;SDS011;13071;48.868;9.996;2022-12-18T09:41:56;47.27;;;16.03;;
25079;SDS011;13071;48.868;9.996;2022-12-18T09:44:24;54.27;;;16.60;;
25079;SDS011;13071;48.868;9.996;2022-12-18T09:47:06;50.93;;;15.73;;
25079;SDS011;13071;48.868;9.996;2022-12-18T09:49:38;53.67;;;16.93;;
25079;SDS011;13071;48.868;9.996;2022-12-18T09:52:12;52.57;;;15.00;;
25079;SDS011;13071;48.868;9.996;2022-12-18T09:54:44;44.77;;;14.77;;
25079;SDS011;13071;48.868;9.996;2022-12-18T09:57:17;49.00;;;15.77;;
25079;SDS011;13071;48.868;9.996;2022-12-18T09:59:47;45.00;;;15.57;;
25079;SDS011;13071;48.868;9.996;2022-12-18T10:02:19;49.63;;;15.97;;
25079;SDS011;13071;48.868;9.996;2022-12-18T10:04:49;62.70;;;20.03;;
25079;SDS011;13071;48.868;9.996;2022-12-18T10:07:24;49.80;;;16.10;;
25079;SDS011;13071;48.868;9.996;2022-12-18T10:10:00;48.57;;;14.97;;
25079;SDS011;13071;48.868;9.996;2022-12-18T10:12:37;48.00;;;15.00;;
25079;SDS011;13071;48.868;9.996;2022-12-18T10:15:11;52.53;;;16.23;;
25079;SDS011;13071;48.868;9.996;2022-12-18T10:17:47;48.47;;;14.93;;
25079;SDS011;13071;48.868;9.996;2022-12-18T10:20:19;48.70;;;14.13;;
25079;SDS011;13071;48.868;9.996;2022-12-18T10:22:55;43.23;;;14.07;;
25079;SDS011;13071;48.868;9.996;2022-12-18T10:25:28;47.63;;;14.40;;
25079;SDS011;13071;48.868;9.996;2022-12-18T10:28:07;46.10;;;14.77;;
25079;SDS011;13071;48.868;9.996;2022-12-18T10:30:36;45.97;;;13.83;;
25079;SDS011;13071;48.868;9.996;2022-12-18T10:33:04;43.97;;;13.67;;
25079;SDS011;13071;48.868;9.996;2022-12-18T10:35:32;43.77;;;13.33;;
25079;SDS011;13071;48.868;9.996;2022-12-18T10:37:59;45.53;;;15.83;;
25079;SDS011;13071;48.868;9.996;2022-12-18T10:40:30;44.37;;;14.33;;
25079;SDS011;13071;48.868;9.996;2022-12-18T10:43:05;39.70;;;14.67;;
25079;SDS011;13071;48.868;9.996;2022-12-18T10:45:38;41.33;;;13.37;;
25079;SDS011;13071;48.868;9.996;2022-12-18T10:48:16;44.50;;;15.27;;
25079;SDS011;13071;48.868;9.996;2022-12-18T10:50:46;42.80;;;14.40;;
25079;SDS011;13071;48.868;9.996;2022-12-18T10:53:16;45.87;;;15.17;;
25079;SDS011;13071;48.868;9.996;2022-12-18T10:55:46;48.60;;;14.80;;
25079;SDS011;13071;48.868;9.996;2022-12-18T10:58:19;41.30;;;13.73;;
25079;SDS011;13071;48.868;9.996;2022-12-18T11:01:01;49.90;;;14.90;;
25079;SDS011;13071;48.868;9.996;2022-12-18T11:03:35;42.10;;;13.80;;
25079;SDS011;13071;48.868;9.996;2022-12-18T11:06:03;45.90;;;14.67;;
25079;SDS011;13071;48.868;9.996;2022-12-18T11:08:32;41.73;;;13.77;;
25079;SDS011;13071;48.868;9.996;2022-12-18T11:10:59;46.50;;;14.63;;
25079;SDS011;13071;48.868;9.996;2022-12-18T11:13:28;45.60;;;13.97;;
25079;SDS011;13071;48.868;9.996;2022-12-18T11:15:56;39.97;;;13.43;;
25079;SDS011;13071;48.868;9.996;2022-12-18T11:18:25;43.37;;;13.93;;
25079;SDS011;13071;48.868;9.996;2022-12-18T11:20:55;41.90;;;13.07;;
25079;SDS011;13071;48.868;9.996;2022-12-18T11:23:23;29.87;;;7.20;;
25079;SDS011;13071;48.868;9.996;2022-12-18T11:25:51;19.10;;;5.87;;
25079;SDS011;13071;48.868;9.996;2022-12-18T11:28:28;24.80;;;7.60;;
25079;SDS011;13071;48.868;9.996;2022-12-18T11:31:12;25.10;;;7.43;;
25079;SDS011;13071;48.868;9.996;2022-12-18T11:33:45;24.23;;;7.83;;
25079;SDS011;13071;48.868;9.996;2022-12-18T11:36:16;27.03;;;6.57;;
25079;SDS011;13071;48.868;9.996;2022-12-18T11:38:44;19.17;;;7.87;;
25079;SDS011;13071;48.868;9.996;2022-12-18T11:41:15;19.00;;;6.60;;
25079;SDS011;13071;48.868;9.996;2022-12-18T11:44:11;24.70;;;7.47;;
25079;SDS011;13071;48.868;9.996;2022-12-18T11:46:43;24.67;;;6.90;;
25079;SDS011;13071;48.868;9.996;2022-12-18T11:49:15;29.07;;;6.50;;
25079;SDS011;13071;48.868;9.996;2022-12-18T11:51:50;21.93;;;5.90;;
25079;SDS011;13071;48.868;9.996;2022-12-18T11:54:22;14.93;;;5.23;;
25079;SDS011;13071;48.868;9.996;2022-12-18T11:56:49;21.87;;;7.03;;
25079;SDS011;13071;48.868;9.996;2022-12-18T11:59:24;24.03;;;6.67;;
25079;SDS011;13071;48.868;9.996;2022-12-18T12:02:00;33.43;;;8.33;;
25079;SDS011;13071;48.868;9.996;2022-12-18T12:04:48;18.43;;;6.97;;
25079;SDS011;13071;48.868;9.996;2022-12-18T12:07:28;24.53;;;6.37;;
25079;SDS011;13071;48.868;9.996;2022-12-18T12:10:13;19.13;;;6.30;;
25079;SDS011;13071;48.868;9.996;2022-12-18T12:12:57;24.17;;;5.90;;
25079;SDS011;13071;48.868;9.996;2022-12-18T12:15:44;24.40;;;6.67;;
25079;SDS011;13071;48.868;9.996;2022-12-18T12:18:21;21.43;;;6.40;;
25079;SDS011;13071;48.868;9.996;2022-12-18T12:20:59;19.43;;;7.17;;
25079;SDS011;13071;48.868;9.996;2022-12-18T12:23:34;18.27;;;6.83;;
25079;SDS011;13071;48.868;9.996;2022-12-18T12:26:10;18.83;;;6.13;;
25079;SDS011;13071;48.868;9.996;2022-12-18T12:28:47;33.53;;;7.43;;
25079;SDS011;13071;48.868;9.996;2022-12-18T12:31:29;19.73;;;6.77;;
25079;SDS011;13071;48.868;9.996;2022-12-18T12:34:07;18.47;;;6.33;;
25079;SDS011;13071;48.868;9.996;2022-12-18T12:36:43;22.33;;;7.67;;
25079;SDS011;13071;48.868;9.996;2022-12-18T12:39:20;22.47;;;6.53;;
25079;SDS011;13071;48.868;9.996;2022-12-18T12:41:58;22.40;;;7.47;;
25079;SDS011;13071;48.868;9.996;2022-12-18T12:44:43;42.17;;;11.60;;
25079;SDS011;13071;48.868;9.996;2022-12-18T12:47:16;44.67;;;12.40;;
25079;SDS011;13071;48.868;9.996;2022-12-18T12:49:47;17.10;;;6.30;;
25079;SDS011;13071;48.868;9.996;2022-12-18T12:52:15;16.97;;;6.57;;
25079;SDS011;13071;48.868;9.996;2022-12-18T12:54:56;25.27;;;8.00;;
25079;SDS011;13071;48.868;9.996;2022-12-18T12:57:25;18.90;;;5.63;;
25079;SDS011;13071;48.868;9.996;2022-12-18T12:59:57;24.83;;;7.40;;
25079;SDS011;13071;48.868;9.996;2022-12-18T13:02:31;15.57;;;6.43;;
25079;SDS011;13071;48.868;9.996;2022-12-18T13:05:03;21.53;;;5.93;;
25079;SDS011;13071;48.868;9.996;2022-12-18T13:07:38;18.77;;;6.63;;
25079;SDS011;13071;48.868;9.996;2022-12-18T13:10:11;26.13;;;7.67;;
25079;SDS011;13071;48.868;9.996;2022-12-18T13:12:56;29.63;;;8.23;;
25079;SDS011;13071;48.868;9.996;2022-12-18T13:15:24;37.43;;;11.37;;
25079;SDS011;13071;48.868;9.996;2022-12-18T13:18:09;19.10;;;6.90;;
25079;SDS011;13071;48.868;9.996;2022-12-18T13:20:40;27.57;;;8.07;;
25079;SDS011;13071;48.868;9.996;2022-12-18T13:28:58;27.93;;;7.20;;
25079;SDS011;13071;48.868;9.996;2022-12-18T13:34:34;19.10;;;7.17;;
25079;SDS011;13071;48.868;9.996;2022-12-18T13:43:24;18.77;;;6.23;;
25079;SDS011;13071;48.868;9.996;2022-12-18T13:46:04;24.60;;;6.73;;
25079;SDS011;13071;48.868;9.996;2022-12-18T13:48:47;26.33;;;8.07;;
25079;SDS011;13071;48.868;9.996;2022-12-18T13:51:18;22.50;;;8.07;;
25079;SDS011;13071;48.868;9.996;2022-12-18T13:53:47;23.13;;;5.60;;
25079;SDS011;13071;48.868;9.996;2022-12-18T13:56:16;27.33;;;5.80;;
25079;SDS011;13071;48.868;9.996;2022-12-18T13:58:44;35.37;;;6.30;;
25079;SDS011;13071;48.868;9.996;2022-12-18T14:01:21;18.77;;;6.43;;
25079;SDS011;13071;48.868;9.996;2022-12-18T14:03:48;22.20;;;6.93;;
25079;SDS011;13071;48.868;9.996;2022-12-18T14:06:15;26.47;;;7.90;;
25079;SDS011;13071;48.868;9.996;2022-12-18T14:08:44;27.70;;;8.43;;
25079;SDS011;13071;48.868;9.996;2022-12-18T14:11:18;22.10;;;6.47;;
25079;SDS011;13071;48.868;9.996;2022-12-18T14:13:49;21.50;;;6.63;;
25079;SDS011;13071;48.868;9.996;2022-12-18T14:16:16;14.37;;;5.23;;
25079;SDS011;13071;48.868;9.996;2022-12-18T14:18:44;43.23;;;11.23;;
25079;SDS011;13071;48.868;9.996;2022-12-18T14:21:18;29.33;;;10.27;;
25079;SDS011;13071;48.868;9.996;2022-12-18T14:23:47;23.70;;;6.33;;
25079;SDS011;13071;48.868;9.996;2022-12-18T14:26:22;20.33;;;5.30;;
25079;SDS011;13071;48.868;9.996;2022-12-18T14:28:52;23.73;;;7.77;;
25079;SDS011;13071;48.868;9.996;2022-12-18T14:31:19;21.93;;;6.33;;
25079;SDS011;13071;48.868;9.996;2022-12-18T14:33:47;21.77;;;6.67;;
25079;SDS011;13071;48.868;9.996;2022-12-18T14:36:15;20.20;;;7.20;;
25079;SDS011;13071;48.868;9.996;2022-12-18T14:38:47;24.40;;;6.90;;
25079;SDS011;13071;48.868;9.996;2022-12-18T14:41:15;15.90;;;6.47;;
25079;SDS011;13071;48.868;9.996;2022-12-18T14:43:44;18.70;;;6.80;;
25079;SDS011;13071;48.868;9.996;2022-12-18T14:46:25;41.10;;;13.27;;
25079;SDS011;13071;48.868;9.996;2022-12-18T14:48:54;38.77;;;12.17;;
25079;SDS011;13071;48.868;9.996;2022-12-18T14:51:24;24.77;;;7.23;;
25079;SDS011;13071;48.868;9.996;2022-12-18T14:53:53;29.50;;;6.80;;
25079;SDS011;13071;48.868;9.996;2022-12-18T14:56:22;34.20;;;9.40;;
25079;SDS011;13071;48.868;9.996;2022-12-18T14:58:50;20.17;;;6.77;;